sensor_id;sensor_type;location;lat;lon;timestamp;P1;durP1;ratioP1;P2;durP2;ratioP2
23282;SDS011;11810;51.178;3.878;2023-05-21T00:02:15;16.00;;;8.30;;
23282;SDS011;11810;51.178;3.878;2023-05-21T00:04:45;10.40;;;7.40;;
23282;SDS011;11810;51.178;3.878;2023-05-21T00:07:11;13.07;;;6.80;;
23282;SDS011;11810;51.178;3.878;2023-05-21T00:09:39;11.13;;;6.95;;
23282;SDS011;11810;51.178;3.878;2023-05-21T00:12:06;11.10;;;7.65;;
23282;SDS011;11810;51.178;3.878;2023-05-21T00:14:33;9.80;;;7.00;;
23282;SDS011;11810;51.178;3.878;2023-05-21T00:16:59;17.23;;;7.22;;
23282;SDS011;11810;51.178;3.878;2023-05-21T00:19:25;11.50;;;7.97;;
23282;SDS011;11810;51.178;3.878;2023-05-21T00:21:51;17.17;;;7.90;;
23282;SDS011;11810;51.178;3.878;2023-05-21T00:24:18;14.60;;;7.55;;
23282;SDS011;11810;51.178;3.878;2023-05-21T00:26:44;10.45;;;7.40;;
23282;SDS011;11810;51.178;3.878;2023-05-21T00:29:10;9.45;;;7.15;;
23282;SDS011;11810;51.178;3.878;2023-05-21T00:31:36;10.45;;;7.47;;
23282;SDS011;11810;51.178;3.878;2023-05-21T00:34:02;12.68;;;7.55;;
23282;SDS011;11810;51.178;3.878;2023-05-21T00:36:28;11.15;;;7.18;;
23282;SDS011;11810;51.178;3.878;2023-05-21T00:38:55;12.18;;;7.03;;
23282;SDS011;11810;51.178;3.878;2023-05-21T00:41:21;9.55;;;6.70;;
23282;SDS011;11810;51.178;3.878;2023-05-21T00:43:48;12.93;;;7.45;;
23282;SDS011;11810;51.178;3.878;2023-05-21T00:46:15;9.63;;;6.78;;
23282;SDS011;11810;51.178;3.878;2023-05-21T00:48:45;8.23;;;7.43;;
23282;SDS011;11810;51.178;3.878;2023-05-21T00:51:15;8.73;;;6.60;;
23282;SDS011;11810;51.178;3.878;2023-05-21T00:53:43;8.50;;;6.70;;
23282;SDS011;11810;51.178;3.878;2023-05-21T00:56:10;8.85;;;7.78;;
23282;SDS011;11810;51.178;3.878;2023-05-21T00:58:36;9.55;;;7.15;;
23282;SDS011;11810;51.178;3.878;2023-05-21T01:01:03;11.02;;;7.72;;
23282;SDS011;11810;51.178;3.878;2023-05-21T01:03:31;9.95;;;7.72;;
23282;SDS011;11810;51.178;3.878;2023-05-21T01:06:03;10.48;;;7.68;;
23282;SDS011;11810;51.178;3.878;2023-05-21T01:08:30;13.10;;;8.20;;
23282;SDS011;11810;51.178;3.878;2023-05-21T01:10:56;10.23;;;8.07;;
23282;SDS011;11810;51.178;3.878;2023-05-21T01:13:23;11.07;;;8.80;;
23282;SDS011;11810;51.178;3.878;2023-05-21T01:15:50;10.63;;;8.95;;
23282;SDS011;11810;51.178;3.878;2023-05-21T01:18:18;10.90;;;8.35;;
23282;SDS011;11810;51.178;3.878;2023-05-21T01:20:44;9.13;;;7.70;;
23282;SDS011;11810;51.178;3.878;2023-05-21T01:23:17;12.80;;;8.60;;
23282;SDS011;11810;51.178;3.878;2023-05-21T01:25:44;10.95;;;8.63;;
23282;SDS011;11810;51.178;3.878;2023-05-21T01:28:10;9.02;;;8.10;;
23282;SDS011;11810;51.178;3.878;2023-05-21T01:30:37;9.75;;;8.15;;
23282;SDS011;11810;51.178;3.878;2023-05-21T01:33:16;11.40;;;8.23;;
23282;SDS011;11810;51.178;3.878;2023-05-21T01:35:49;11.45;;;8.57;;
23282;SDS011;11810;51.178;3.878;2023-05-21T01:41:33;11.38;;;8.18;;
23282;SDS011;11810;51.178;3.878;2023-05-21T01:44:04;11.05;;;8.48;;
23282;SDS011;11810;51.178;3.878;2023-05-21T01:46:33;13.65;;;9.77;;
23282;SDS011;11810;51.178;3.878;2023-05-21T01:49:03;12.05;;;9.02;;
23282;SDS011;11810;51.178;3.878;2023-05-21T01:51:30;9.77;;;8.68;;
23282;SDS011;11810;51.178;3.878;2023-05-21T01:53:56;12.73;;;8.90;;
23282;SDS011;11810;51.178;3.878;2023-05-21T01:56:22;13.45;;;8.90;;
23282;SDS011;11810;51.178;3.878;2023-05-21T01:58:50;11.80;;;9.75;;
23282;SDS011;11810;51.178;3.878;2023-05-21T02:01:16;12.45;;;9.60;;
23282;SDS011;11810;51.178;3.878;2023-05-21T02:03:42;14.98;;;9.68;;
23282;SDS011;11810;51.178;3.878;2023-05-21T02:06:08;16.42;;;10.07;;
23282;SDS011;11810;51.178;3.878;2023-05-21T02:08:34;13.15;;;9.73;;
23282;SDS011;11810;51.178;3.878;2023-05-21T02:11:00;12.23;;;9.88;;
23282;SDS011;11810;51.178;3.878;2023-05-21T02:13:26;15.88;;;9.90;;
23282;SDS011;11810;51.178;3.878;2023-05-21T02:15:53;17.40;;;11.45;;
23282;SDS011;11810;51.178;3.878;2023-05-21T02:19:14;14.10;;;10.55;;
23282;SDS011;11810;51.178;3.878;2023-05-21T02:21:40;11.13;;;9.70;;
23282;SDS011;11810;51.178;3.878;2023-05-21T02:24:06;12.98;;;9.82;;
23282;SDS011;11810;51.178;3.878;2023-05-21T02:26:32;13.40;;;10.32;;
23282;SDS011;11810;51.178;3.878;2023-05-21T02:28:59;10.90;;;9.82;;
23282;SDS011;11810;51.178;3.878;2023-05-21T02:31:25;13.80;;;9.85;;
23282;SDS011;11810;51.178;3.878;2023-05-21T02:33:51;14.63;;;10.00;;
23282;SDS011;11810;51.178;3.878;2023-05-21T02:36:17;16.33;;;10.57;;
23282;SDS011;11810;51.178;3.878;2023-05-21T02:38:43;13.00;;;11.35;;
23282;SDS011;11810;51.178;3.878;2023-05-21T02:41:12;15.00;;;11.43;;
23282;SDS011;11810;51.178;3.878;2023-05-21T02:43:38;13.57;;;10.23;;
23282;SDS011;11810;51.178;3.878;2023-05-21T02:46:04;13.80;;;10.23;;
23282;SDS011;11810;51.178;3.878;2023-05-21T02:48:31;14.98;;;9.85;;
23282;SDS011;11810;51.178;3.878;2023-05-21T02:50:57;12.90;;;9.20;;
23282;SDS011;11810;51.178;3.878;2023-05-21T02:53:23;12.43;;;10.00;;
23282;SDS011;11810;51.178;3.878;2023-05-21T02:55:50;12.18;;;10.25;;
23282;SDS011;11810;51.178;3.878;2023-05-21T02:58:16;13.35;;;10.95;;
23282;SDS011;11810;51.178;3.878;2023-05-21T03:00:41;10.75;;;9.48;;
23282;SDS011;11810;51.178;3.878;2023-05-21T03:03:07;19.80;;;10.90;;
23282;SDS011;11810;51.178;3.878;2023-05-21T03:05:33;16.95;;;10.25;;
23282;SDS011;11810;51.178;3.878;2023-05-21T03:07:59;12.43;;;9.68;;
23282;SDS011;11810;51.178;3.878;2023-05-21T03:10:25;14.27;;;10.30;;
23282;SDS011;11810;51.178;3.878;2023-05-21T03:12:51;14.10;;;9.65;;
23282;SDS011;11810;51.178;3.878;2023-05-21T03:15:19;14.07;;;10.57;;
23282;SDS011;11810;51.178;3.878;2023-05-21T03:17:48;15.82;;;10.07;;
23282;SDS011;11810;51.178;3.878;2023-05-21T03:20:15;11.20;;;10.10;;
23282;SDS011;11810;51.178;3.878;2023-05-21T03:22:43;13.23;;;10.02;;
23282;SDS011;11810;51.178;3.878;2023-05-21T03:25:10;14.57;;;10.32;;
23282;SDS011;11810;51.178;3.878;2023-05-21T03:27:37;15.25;;;10.50;;
23282;SDS011;11810;51.178;3.878;2023-05-21T03:30:03;11.02;;;9.90;;
23282;SDS011;11810;51.178;3.878;2023-05-21T03:32:30;12.45;;;9.88;;
23282;SDS011;11810;51.178;3.878;2023-05-21T03:35:02;14.02;;;9.82;;
23282;SDS011;11810;51.178;3.878;2023-05-21T03:37:29;12.60;;;9.63;;
23282;SDS011;11810;51.178;3.878;2023-05-21T03:39:55;12.48;;;9.70;;
23282;SDS011;11810;51.178;3.878;2023-05-21T03:42:21;10.80;;;8.90;;
23282;SDS011;11810;51.178;3.878;2023-05-21T03:44:47;12.18;;;9.27;;
23282;SDS011;11810;51.178;3.878;2023-05-21T03:47:13;13.80;;;9.18;;
23282;SDS011;11810;51.178;3.878;2023-05-21T03:49:38;13.05;;;9.90;;
23282;SDS011;11810;51.178;3.878;2023-05-21T03:52:05;10.27;;;8.73;;
23282;SDS011;11810;51.178;3.878;2023-05-21T03:54:31;14.68;;;9.55;;
23282;SDS011;11810;51.178;3.878;2023-05-21T03:56:56;10.23;;;8.52;;
23282;SDS011;11810;51.178;3.878;2023-05-21T03:59:22;10.65;;;8.82;;
23282;SDS011;11810;51.178;3.878;2023-05-21T04:01:48;9.95;;;7.82;;
23282;SDS011;11810;51.178;3.878;2023-05-21T04:04:14;9.45;;;8.00;;
23282;SDS011;11810;51.178;3.878;2023-05-21T04:06:40;14.10;;;8.93;;
23282;SDS011;11810;51.178;3.878;2023-05-21T04:09:08;12.77;;;8.85;;
23282;SDS011;11810;51.178;3.878;2023-05-21T04:11:34;11.43;;;8.40;;
23282;SDS011;11810;51.178;3.878;2023-05-21T04:14:00;14.63;;;8.93;;
23282;SDS011;11810;51.178;3.878;2023-05-21T04:16:26;14.80;;;8.48;;
23282;SDS011;11810;51.178;3.878;2023-05-21T04:18:52;10.02;;;8.82;;
23282;SDS011;11810;51.178;3.878;2023-05-21T04:21:19;18.38;;;9.32;;
23282;SDS011;11810;51.178;3.878;2023-05-21T04:23:46;13.13;;;8.90;;
23282;SDS011;11810;51.178;3.878;2023-05-21T04:26:11;17.35;;;9.55;;
23282;SDS011;11810;51.178;3.878;2023-05-21T04:28:40;17.70;;;11.80;;
23282;SDS011;11810;51.178;3.878;2023-05-21T04:31:06;17.65;;;12.27;;
23282;SDS011;11810;51.178;3.878;2023-05-21T04:33:32;17.90;;;12.35;;
23282;SDS011;11810;51.178;3.878;2023-05-21T04:35:59;16.30;;;12.75;;
23282;SDS011;11810;51.178;3.878;2023-05-21T04:38:26;15.52;;;12.68;;
23282;SDS011;11810;51.178;3.878;2023-05-21T04:40:52;16.85;;;12.48;;
23282;SDS011;11810;51.178;3.878;2023-05-21T04:43:18;18.80;;;13.02;;
23282;SDS011;11810;51.178;3.878;2023-05-21T04:45:49;15.45;;;12.60;;
23282;SDS011;11810;51.178;3.878;2023-05-21T04:48:16;18.17;;;13.57;;
23282;SDS011;11810;51.178;3.878;2023-05-21T04:50:43;18.70;;;13.60;;
23282;SDS011;11810;51.178;3.878;2023-05-21T04:53:08;15.48;;;13.45;;
23282;SDS011;11810;51.178;3.878;2023-05-21T04:55:35;18.70;;;14.90;;
23282;SDS011;11810;51.178;3.878;2023-05-21T04:58:04;20.08;;;15.05;;
23282;SDS011;11810;51.178;3.878;2023-05-21T05:00:31;19.48;;;14.63;;
23282;SDS011;11810;51.178;3.878;2023-05-21T05:02:58;17.15;;;15.07;;
23282;SDS011;11810;51.178;3.878;2023-05-21T05:05:24;21.27;;;16.13;;
23282;SDS011;11810;51.178;3.878;2023-05-21T05:07:50;20.73;;;16.00;;
23282;SDS011;11810;51.178;3.878;2023-05-21T05:10:16;17.92;;;16.00;;
23282;SDS011;11810;51.178;3.878;2023-05-21T05:12:42;19.95;;;15.55;;
23282;SDS011;11810;51.178;3.878;2023-05-21T05:15:08;22.65;;;16.15;;
23282;SDS011;11810;51.178;3.878;2023-05-21T05:17:35;17.83;;;15.85;;
23282;SDS011;11810;51.178;3.878;2023-05-21T05:20:00;20.17;;;16.65;;
23282;SDS011;11810;51.178;3.878;2023-05-21T05:22:27;21.23;;;16.55;;
23282;SDS011;11810;51.178;3.878;2023-05-21T05:24:53;19.42;;;15.57;;
23282;SDS011;11810;51.178;3.878;2023-05-21T05:27:19;19.77;;;15.35;;
23282;SDS011;11810;51.178;3.878;2023-05-21T05:29:45;17.48;;;14.98;;
23282;SDS011;11810;51.178;3.878;2023-05-21T05:32:12;17.55;;;14.48;;
23282;SDS011;11810;51.178;3.878;2023-05-21T05:34:38;19.48;;;14.05;;
23282;SDS011;11810;51.178;3.878;2023-05-21T05:37:03;16.60;;;13.23;;
23282;SDS011;11810;51.178;3.878;2023-05-21T05:39:30;15.20;;;12.25;;
23282;SDS011;11810;51.178;3.878;2023-05-21T05:41:56;16.23;;;13.48;;
23282;SDS011;11810;51.178;3.878;2023-05-21T05:44:21;16.90;;;12.85;;
23282;SDS011;11810;51.178;3.878;2023-05-21T05:46:47;16.17;;;12.40;;
23282;SDS011;11810;51.178;3.878;2023-05-21T05:49:13;14.90;;;12.15;;
23282;SDS011;11810;51.178;3.878;2023-05-21T05:51:39;18.75;;;12.13;;
23282;SDS011;11810;51.178;3.878;2023-05-21T05:54:06;16.02;;;11.40;;
23282;SDS011;11810;51.178;3.878;2023-05-21T05:56:32;16.38;;;11.55;;
23282;SDS011;11810;51.178;3.878;2023-05-21T05:58:58;13.25;;;10.40;;
23282;SDS011;11810;51.178;3.878;2023-05-21T06:01:24;14.82;;;10.23;;
23282;SDS011;11810;51.178;3.878;2023-05-21T06:03:50;16.98;;;11.32;;
23282;SDS011;11810;51.178;3.878;2023-05-21T06:06:16;15.52;;;11.48;;
23282;SDS011;11810;51.178;3.878;2023-05-21T06:08:42;14.88;;;10.65;;
23282;SDS011;11810;51.178;3.878;2023-05-21T06:11:09;12.73;;;10.27;;
23282;SDS011;11810;51.178;3.878;2023-05-21T06:13:35;13.18;;;9.98;;
23282;SDS011;11810;51.178;3.878;2023-05-21T06:16:01;15.88;;;10.60;;
23282;SDS011;11810;51.178;3.878;2023-05-21T06:18:28;11.45;;;9.38;;
23282;SDS011;11810;51.178;3.878;2023-05-21T06:20:54;14.07;;;8.40;;
23282;SDS011;11810;51.178;3.878;2023-05-21T06:23:20;13.70;;;8.45;;
23282;SDS011;11810;51.178;3.878;2023-05-21T06:25:46;10.68;;;9.35;;
23282;SDS011;11810;51.178;3.878;2023-05-21T06:28:12;14.55;;;8.57;;
23282;SDS011;11810;51.178;3.878;2023-05-21T06:30:38;14.05;;;8.57;;
23282;SDS011;11810;51.178;3.878;2023-05-21T06:33:04;10.35;;;7.63;;
23282;SDS011;11810;51.178;3.878;2023-05-21T06:35:30;10.63;;;7.05;;
23282;SDS011;11810;51.178;3.878;2023-05-21T06:37:58;10.45;;;7.47;;
23282;SDS011;11810;51.178;3.878;2023-05-21T06:40:24;11.63;;;8.48;;
23282;SDS011;11810;51.178;3.878;2023-05-21T06:42:50;11.95;;;8.00;;
23282;SDS011;11810;51.178;3.878;2023-05-21T06:45:16;9.63;;;7.38;;
23282;SDS011;11810;51.178;3.878;2023-05-21T06:47:42;10.30;;;7.45;;
23282;SDS011;11810;51.178;3.878;2023-05-21T06:50:08;12.18;;;7.28;;
23282;SDS011;11810;51.178;3.878;2023-05-21T06:52:34;9.70;;;6.93;;
23282;SDS011;11810;51.178;3.878;2023-05-21T06:55:00;11.27;;;6.63;;
23282;SDS011;11810;51.178;3.878;2023-05-21T06:57:26;9.32;;;6.47;;
23282;SDS011;11810;51.178;3.878;2023-05-21T06:59:52;13.32;;;6.90;;
23282;SDS011;11810;51.178;3.878;2023-05-21T07:02:18;8.27;;;6.63;;
23282;SDS011;11810;51.178;3.878;2023-05-21T07:04:44;13.65;;;7.30;;
23282;SDS011;11810;51.178;3.878;2023-05-21T07:07:10;10.02;;;6.95;;
23282;SDS011;11810;51.178;3.878;2023-05-21T07:09:36;10.40;;;6.30;;
23282;SDS011;11810;51.178;3.878;2023-05-21T07:12:02;10.27;;;6.88;;
23282;SDS011;11810;51.178;3.878;2023-05-21T07:14:28;10.25;;;6.70;;
23282;SDS011;11810;51.178;3.878;2023-05-21T07:16:54;7.25;;;6.43;;
23282;SDS011;11810;51.178;3.878;2023-05-21T07:19:20;7.47;;;5.70;;
23282;SDS011;11810;51.178;3.878;2023-05-21T07:21:46;11.35;;;6.32;;
23282;SDS011;11810;51.178;3.878;2023-05-21T07:24:12;8.95;;;6.45;;
23282;SDS011;11810;51.178;3.878;2023-05-21T07:26:38;8.38;;;6.15;;
23282;SDS011;11810;51.178;3.878;2023-05-21T07:29:04;8.82;;;6.03;;
23282;SDS011;11810;51.178;3.878;2023-05-21T07:31:30;6.93;;;5.93;;
23282;SDS011;11810;51.178;3.878;2023-05-21T07:33:56;8.40;;;6.18;;
23282;SDS011;11810;51.178;3.878;2023-05-21T07:36:22;11.05;;;6.18;;
23282;SDS011;11810;51.178;3.878;2023-05-21T07:38:48;9.55;;;6.07;;
23282;SDS011;11810;51.178;3.878;2023-05-21T07:41:14;9.15;;;6.00;;
23282;SDS011;11810;51.178;3.878;2023-05-21T07:43:40;8.73;;;6.68;;
23282;SDS011;11810;51.178;3.878;2023-05-21T07:46:06;8.07;;;6.25;;
23282;SDS011;11810;51.178;3.878;2023-05-21T07:48:31;8.80;;;6.07;;
23282;SDS011;11810;51.178;3.878;2023-05-21T07:50:57;11.25;;;6.68;;
23282;SDS011;11810;51.178;3.878;2023-05-21T07:53:24;8.80;;;6.45;;
23282;SDS011;11810;51.178;3.878;2023-05-21T07:55:50;8.38;;;6.72;;
23282;SDS011;11810;51.178;3.878;2023-05-21T07:58:16;10.00;;;6.63;;
23282;SDS011;11810;51.178;3.878;2023-05-21T08:00:44;11.00;;;6.88;;
23282;SDS011;11810;51.178;3.878;2023-05-21T08:03:14;14.80;;;7.28;;
23282;SDS011;11810;51.178;3.878;2023-05-21T08:05:41;11.18;;;6.60;;
23282;SDS011;11810;51.178;3.878;2023-05-21T08:08:13;9.23;;;6.50;;
23282;SDS011;11810;51.178;3.878;2023-05-21T08:10:43;8.10;;;6.03;;
23282;SDS011;11810;51.178;3.878;2023-05-21T08:13:13;10.25;;;6.53;;
23282;SDS011;11810;51.178;3.878;2023-05-21T08:15:40;10.35;;;6.22;;
23282;SDS011;11810;51.178;3.878;2023-05-21T08:18:06;9.48;;;5.90;;
23282;SDS011;11810;51.178;3.878;2023-05-21T08:20:32;12.00;;;6.47;;
23282;SDS011;11810;51.178;3.878;2023-05-21T08:22:58;9.32;;;6.82;;
23282;SDS011;11810;51.178;3.878;2023-05-21T08:25:25;6.97;;;6.13;;
23282;SDS011;11810;51.178;3.878;2023-05-21T08:27:51;11.52;;;6.93;;
23282;SDS011;11810;51.178;3.878;2023-05-21T08:30:17;9.18;;;5.53;;
23282;SDS011;11810;51.178;3.878;2023-05-21T08:32:44;9.60;;;6.15;;
23282;SDS011;11810;51.178;3.878;2023-05-21T08:35:10;10.50;;;6.28;;
23282;SDS011;11810;51.178;3.878;2023-05-21T08:37:36;8.77;;;6.25;;
23282;SDS011;11810;51.178;3.878;2023-05-21T08:40:02;9.35;;;6.20;;
23282;SDS011;11810;51.178;3.878;2023-05-21T08:42:35;9.90;;;6.57;;
23282;SDS011;11810;51.178;3.878;2023-05-21T08:45:11;8.20;;;6.03;;
23282;SDS011;11810;51.178;3.878;2023-05-21T08:47:40;9.50;;;6.88;;
23282;SDS011;11810;51.178;3.878;2023-05-21T08:50:09;8.23;;;6.65;;
23282;SDS011;11810;51.178;3.878;2023-05-21T08:52:36;9.18;;;6.30;;
23282;SDS011;11810;51.178;3.878;2023-05-21T08:55:02;9.02;;;6.82;;
23282;SDS011;11810;51.178;3.878;2023-05-21T08:57:30;11.50;;;6.72;;
23282;SDS011;11810;51.178;3.878;2023-05-21T08:59:56;11.52;;;7.07;;
23282;SDS011;11810;51.178;3.878;2023-05-21T09:02:24;10.20;;;6.63;;
23282;SDS011;11810;51.178;3.878;2023-05-21T09:04:52;7.78;;;6.25;;
23282;SDS011;11810;51.178;3.878;2023-05-21T09:07:23;9.32;;;6.72;;
23282;SDS011;11810;51.178;3.878;2023-05-21T09:09:54;8.00;;;6.70;;
23282;SDS011;11810;51.178;3.878;2023-05-21T09:12:22;12.90;;;6.90;;
23282;SDS011;11810;51.178;3.878;2023-05-21T09:14:49;8.90;;;6.85;;
23282;SDS011;11810;51.178;3.878;2023-05-21T09:17:16;10.48;;;7.07;;
23282;SDS011;11810;51.178;3.878;2023-05-21T09:22:47;10.38;;;7.53;;
23282;SDS011;11810;51.178;3.878;2023-05-21T09:25:15;9.98;;;7.50;;
23282;SDS011;11810;51.178;3.878;2023-05-21T09:27:42;8.88;;;7.03;;
23282;SDS011;11810;51.178;3.878;2023-05-21T09:30:14;11.27;;;7.68;;
23282;SDS011;11810;51.178;3.878;2023-05-21T09:32:42;9.82;;;8.27;;
23282;SDS011;11810;51.178;3.878;2023-05-21T09:35:10;12.90;;;7.68;;
23282;SDS011;11810;51.178;3.878;2023-05-21T09:37:39;12.02;;;7.63;;
23282;SDS011;11810;51.178;3.878;2023-05-21T09:45:17;7.93;;;7.10;;
23282;SDS011;11810;51.178;3.878;2023-05-21T09:47:47;16.23;;;9.13;;
23282;SDS011;11810;51.178;3.878;2023-05-21T09:50:21;10.82;;;8.77;;
23282;SDS011;11810;51.178;3.878;2023-05-21T09:52:48;10.52;;;9.32;;
23282;SDS011;11810;51.178;3.878;2023-05-21T09:55:17;11.13;;;8.68;;
23282;SDS011;11810;51.178;3.878;2023-05-21T09:57:46;13.27;;;9.73;;
23282;SDS011;11810;51.178;3.878;2023-05-21T10:00:17;11.68;;;9.38;;
23282;SDS011;11810;51.178;3.878;2023-05-21T10:02:45;14.40;;;9.82;;
23282;SDS011;11810;51.178;3.878;2023-05-21T10:05:13;14.20;;;9.40;;
23282;SDS011;11810;51.178;3.878;2023-05-21T10:07:41;12.98;;;9.98;;
23282;SDS011;11810;51.178;3.878;2023-05-21T10:10:12;12.60;;;8.73;;
23282;SDS011;11810;51.178;3.878;2023-05-21T10:12:42;19.23;;;9.95;;
23282;SDS011;11810;51.178;3.878;2023-05-21T10:15:13;11.05;;;8.93;;
23282;SDS011;11810;51.178;3.878;2023-05-21T10:17:41;13.13;;;9.10;;
23282;SDS011;11810;51.178;3.878;2023-05-21T10:20:10;9.68;;;8.68;;
23282;SDS011;11810;51.178;3.878;2023-05-21T10:22:37;10.73;;;8.77;;
23282;SDS011;11810;51.178;3.878;2023-05-21T10:25:05;12.05;;;9.05;;
23282;SDS011;11810;51.178;3.878;2023-05-21T10:27:32;13.65;;;8.77;;
23282;SDS011;11810;51.178;3.878;2023-05-21T10:30:02;10.90;;;8.73;;
23282;SDS011;11810;51.178;3.878;2023-05-21T10:32:30;10.90;;;8.60;;
23282;SDS011;11810;51.178;3.878;2023-05-21T10:34:56;16.63;;;9.38;;
23282;SDS011;11810;51.178;3.878;2023-05-21T10:37:23;12.85;;;9.30;;
23282;SDS011;11810;51.178;3.878;2023-05-21T10:39:52;14.40;;;9.45;;
23282;SDS011;11810;51.178;3.878;2023-05-21T10:48:14;12.63;;;9.70;;
23282;SDS011;11810;51.178;3.878;2023-05-21T10:59:28;11.13;;;8.98;;
23282;SDS011;11810;51.178;3.878;2023-05-21T11:02:05;11.13;;;8.18;;
23282;SDS011;11810;51.178;3.878;2023-05-21T11:04:32;11.50;;;8.30;;
23282;SDS011;11810;51.178;3.878;2023-05-21T11:07:03;14.15;;;9.30;;
23282;SDS011;11810;51.178;3.878;2023-05-21T11:09:30;13.23;;;9.15;;
23282;SDS011;11810;51.178;3.878;2023-05-21T11:11:56;12.80;;;8.95;;
23282;SDS011;11810;51.178;3.878;2023-05-21T11:19:34;11.77;;;8.45;;
23282;SDS011;11810;51.178;3.878;2023-05-21T11:22:26;11.32;;;8.00;;
23282;SDS011;11810;51.178;3.878;2023-05-21T11:24:52;13.02;;;8.65;;
23282;SDS011;11810;51.178;3.878;2023-05-21T11:30:15;12.07;;;9.73;;
23282;SDS011;11810;51.178;3.878;2023-05-21T11:33:16;13.00;;;9.15;;
23282;SDS011;11810;51.178;3.878;2023-05-21T11:35:54;13.18;;;10.52;;
23282;SDS011;11810;51.178;3.878;2023-05-21T11:38:27;12.65;;;9.27;;
23282;SDS011;11810;51.178;3.878;2023-05-21T11:40:59;15.55;;;10.48;;
23282;SDS011;11810;51.178;3.878;2023-05-21T11:43:28;13.98;;;9.60;;
23282;SDS011;11810;51.178;3.878;2023-05-21T11:45:55;12.88;;;8.85;;
23282;SDS011;11810;51.178;3.878;2023-05-21T11:48:24;14.90;;;9.88;;
23282;SDS011;11810;51.178;3.878;2023-05-21T11:50:50;12.73;;;9.40;;
23282;SDS011;11810;51.178;3.878;2023-05-21T11:53:17;13.65;;;10.52;;
23282;SDS011;11810;51.178;3.878;2023-05-21T11:55:43;18.45;;;11.25;;
23282;SDS011;11810;51.178;3.878;2023-05-21T11:58:11;14.80;;;11.00;;
23282;SDS011;11810;51.178;3.878;2023-05-21T12:00:38;13.23;;;11.32;;
23282;SDS011;11810;51.178;3.878;2023-05-21T12:03:05;14.52;;;11.23;;
23282;SDS011;11810;51.178;3.878;2023-05-21T12:05:46;13.77;;;10.55;;
23282;SDS011;11810;51.178;3.878;2023-05-21T12:08:12;15.88;;;10.30;;
23282;SDS011;11810;51.178;3.878;2023-05-21T12:10:45;15.85;;;10.55;;
23282;SDS011;11810;51.178;3.878;2023-05-21T12:13:11;13.30;;;11.60;;
23282;SDS011;11810;51.178;3.878;2023-05-21T12:15:38;13.73;;;11.00;;
23282;SDS011;11810;51.178;3.878;2023-05-21T12:18:04;16.00;;;10.93;;
23282;SDS011;11810;51.178;3.878;2023-05-21T12:20:30;13.13;;;10.40;;
23282;SDS011;11810;51.178;3.878;2023-05-21T12:22:56;14.02;;;10.65;;
23282;SDS011;11810;51.178;3.878;2023-05-21T12:25:23;15.65;;;11.25;;
23282;SDS011;11810;51.178;3.878;2023-05-21T12:27:49;15.18;;;11.05;;
23282;SDS011;11810;51.178;3.878;2023-05-21T12:30:22;12.82;;;11.00;;
23282;SDS011;11810;51.178;3.878;2023-05-21T12:32:49;13.50;;;10.80;;
23282;SDS011;11810;51.178;3.878;2023-05-21T12:35:22;16.60;;;11.35;;
23282;SDS011;11810;51.178;3.878;2023-05-21T12:37:48;16.42;;;10.20;;
23282;SDS011;11810;51.178;3.878;2023-05-21T12:40:15;13.13;;;10.40;;
23282;SDS011;11810;51.178;3.878;2023-05-21T12:42:41;16.90;;;10.20;;
23282;SDS011;11810;51.178;3.878;2023-05-21T12:45:08;14.05;;;9.77;;
23282;SDS011;11810;51.178;3.878;2023-05-21T12:47:35;17.60;;;10.10;;
23282;SDS011;11810;51.178;3.878;2023-05-21T12:50:10;20.33;;;9.48;;
23282;SDS011;11810;51.178;3.878;2023-05-21T12:52:38;21.00;;;9.18;;
23282;SDS011;11810;51.178;3.878;2023-05-21T12:55:07;14.35;;;9.15;;
23282;SDS011;11810;51.178;3.878;2023-05-21T12:57:36;12.93;;;8.73;;
23282;SDS011;11810;51.178;3.878;2023-05-21T13:00:03;16.13;;;8.70;;
23282;SDS011;11810;51.178;3.878;2023-05-21T13:02:41;13.75;;;8.80;;
23282;SDS011;11810;51.178;3.878;2023-05-21T13:05:08;14.60;;;8.93;;
23282;SDS011;11810;51.178;3.878;2023-05-21T13:07:36;16.30;;;8.57;;
23282;SDS011;11810;51.178;3.878;2023-05-21T13:10:04;16.85;;;9.38;;
23282;SDS011;11810;51.178;3.878;2023-05-21T13:12:31;15.63;;;8.68;;
23282;SDS011;11810;51.178;3.878;2023-05-21T13:14:59;12.50;;;8.00;;
23282;SDS011;11810;51.178;3.878;2023-05-21T13:17:26;15.63;;;8.55;;
23282;SDS011;11810;51.178;3.878;2023-05-21T13:25:12;14.43;;;7.28;;
23282;SDS011;11810;51.178;3.878;2023-05-21T13:27:43;15.98;;;8.48;;
23282;SDS011;11810;51.178;3.878;2023-05-21T13:30:09;17.33;;;8.02;;
23282;SDS011;11810;51.178;3.878;2023-05-21T13:32:36;13.82;;;7.90;;
23282;SDS011;11810;51.178;3.878;2023-05-21T13:35:03;18.35;;;8.98;;
23282;SDS011;11810;51.178;3.878;2023-05-21T13:37:29;15.60;;;8.63;;
23282;SDS011;11810;51.178;3.878;2023-05-21T13:39:56;16.73;;;8.82;;
23282;SDS011;11810;51.178;3.878;2023-05-21T13:42:22;12.32;;;7.43;;
23282;SDS011;11810;51.178;3.878;2023-05-21T13:44:48;19.50;;;9.07;;
23282;SDS011;11810;51.178;3.878;2023-05-21T13:47:14;16.02;;;8.13;;
23282;SDS011;11810;51.178;3.878;2023-05-21T13:49:40;16.55;;;8.65;;
23282;SDS011;11810;51.178;3.878;2023-05-21T13:52:07;13.18;;;7.82;;
23282;SDS011;11810;51.178;3.878;2023-05-21T13:54:34;19.88;;;7.90;;
23282;SDS011;11810;51.178;3.878;2023-05-21T13:57:01;15.18;;;8.13;;
23282;SDS011;11810;51.178;3.878;2023-05-21T13:59:27;14.73;;;8.07;;
23282;SDS011;11810;51.178;3.878;2023-05-21T14:01:53;16.75;;;8.48;;
23282;SDS011;11810;51.178;3.878;2023-05-21T14:04:19;16.55;;;8.40;;
23282;SDS011;11810;51.178;3.878;2023-05-21T14:06:46;15.68;;;8.48;;
23282;SDS011;11810;51.178;3.878;2023-05-21T14:09:12;17.55;;;8.75;;
23282;SDS011;11810;51.178;3.878;2023-05-21T14:11:39;18.00;;;8.57;;
23282;SDS011;11810;51.178;3.878;2023-05-21T14:14:05;19.58;;;7.28;;
23282;SDS011;11810;51.178;3.878;2023-05-21T14:16:31;14.38;;;6.85;;
23282;SDS011;11810;51.178;3.878;2023-05-21T14:18:57;21.88;;;8.77;;
23282;SDS011;11810;51.178;3.878;2023-05-21T14:21:23;19.42;;;9.25;;
23282;SDS011;11810;51.178;3.878;2023-05-21T14:23:50;15.60;;;8.82;;
23282;SDS011;11810;51.178;3.878;2023-05-21T14:26:16;18.75;;;9.90;;
23282;SDS011;11810;51.178;3.878;2023-05-21T14:28:43;15.57;;;9.00;;
23282;SDS011;11810;51.178;3.878;2023-05-21T14:31:09;17.40;;;9.18;;
23282;SDS011;11810;51.178;3.878;2023-05-21T14:33:36;22.48;;;8.27;;
23282;SDS011;11810;51.178;3.878;2023-05-21T14:36:03;18.05;;;8.82;;
23282;SDS011;11810;51.178;3.878;2023-05-21T14:38:29;17.70;;;7.65;;
23282;SDS011;11810;51.178;3.878;2023-05-21T14:40:55;15.32;;;7.95;;
23282;SDS011;11810;51.178;3.878;2023-05-21T14:43:22;15.60;;;8.20;;
23282;SDS011;11810;51.178;3.878;2023-05-21T14:45:48;12.95;;;8.13;;
23282;SDS011;11810;51.178;3.878;2023-05-21T14:48:17;18.88;;;8.35;;
23282;SDS011;11810;51.178;3.878;2023-05-21T14:50:47;15.00;;;7.93;;
23282;SDS011;11810;51.178;3.878;2023-05-21T14:53:14;17.00;;;8.35;;
23282;SDS011;11810;51.178;3.878;2023-05-21T14:55:40;19.38;;;7.80;;
23282;SDS011;11810;51.178;3.878;2023-05-21T14:58:06;21.63;;;7.50;;
23282;SDS011;11810;51.178;3.878;2023-05-21T15:00:32;16.95;;;8.27;;
23282;SDS011;11810;51.178;3.878;2023-05-21T15:02:59;17.20;;;8.40;;
23282;SDS011;11810;51.178;3.878;2023-05-21T15:05:26;12.75;;;8.00;;
23282;SDS011;11810;51.178;3.878;2023-05-21T15:07:53;12.38;;;7.45;;
23282;SDS011;11810;51.178;3.878;2023-05-21T15:10:20;17.17;;;8.70;;
23282;SDS011;11810;51.178;3.878;2023-05-21T15:12:46;15.60;;;7.95;;
23282;SDS011;11810;51.178;3.878;2023-05-21T15:15:12;18.63;;;8.57;;